createdAt,value
2024-05-09T00:03:29.626Z,68.22
2024-05-09T00:08:47.485Z,68.80
2024-05-09T00:14:12.701Z,68.87
2024-05-09T00:19:37.989Z,69.31
2024-05-09T00:25:03.253Z,69.48
2024-05-09T00:30:34.596Z,69.84
2024-05-09T00:36:01.974Z,70.29
2024-05-09T00:41:27.442Z,70.65
2024-05-09T00:46:53.011Z,70.81
2024-05-09T00:52:18.843Z,71.23
2024-05-09T00:57:45.606Z,71.69
2024-05-09T01:03:12.832Z,71.87
2024-05-09T01:08:39.688Z,72.26
2024-05-09T01:14:03.494Z,72.53
2024-05-09T01:19:36.942Z,72.88
2024-05-09T01:24:55.688Z,73.27
2024-05-09T01:30:24.570Z,73.47
2024-05-09T01:35:56.562Z,73.96
2024-05-09T01:41:21.767Z,74.01
2024-05-09T01:46:47.040Z,74.42
2024-05-09T01:52:12.226Z,74.60
2024-05-09T01:57:37.414Z,74.96
2024-05-09T02:03:05.066Z,75.35
2024-05-09T02:08:29.584Z,75.68
2024-05-09T02:13:54.856Z,75.76
2024-05-09T02:19:20.325Z,76.17
2024-05-09T02:24:45.851Z,76.63
2024-05-09T02:30:18.760Z,76.53
2024-05-09T02:35:51.301Z,76.79
2024-05-09T02:41:16.775Z,76.96
2024-05-09T02:46:42.040Z,77.27
2024-05-09T02:51:59.565Z,77.18
2024-05-09T02:57:17.521Z,77.36
2024-05-09T03:02:43.015Z,77.64
2024-05-09T03:08:08.539Z,78.00
2024-05-09T03:13:34.630Z,78.29
2024-05-09T03:19:00.057Z,78.40
2024-05-09T03:24:25.887Z,78.74
2024-05-09T03:29:43.636Z,79.17
2024-05-09T03:35:08.835Z,79.32
2024-05-09T03:40:34.478Z,79.64
2024-05-09T03:45:59.599Z,79.87
2024-05-09T03:51:25.340Z,79.95
2024-05-09T03:56:50.530Z,80.49
2024-05-09T04:02:16.005Z,80.74
2024-05-09T04:07:41.329Z,80.85
2024-05-09T04:13:06.503Z,81.00
2024-05-09T04:18:31.813Z,81.85
2024-05-09T04:23:57.049Z,82.04
2024-05-09T04:29:22.258Z,82.47
2024-05-09T04:34:47.513Z,83.09
2024-05-09T04:40:24.040Z,83.09
2024-05-09T04:45:56.264Z,81.44
2024-05-09T04:51:22.996Z,80.68
2024-05-09T04:56:48.206Z,81.17
2024-05-09T05:02:13.474Z,81.12
2024-05-09T05:07:38.737Z,79.56
2024-05-09T05:13:02.298Z,77.82
2024-05-09T05:18:10.137Z,76.49
2024-05-09T05:23:36.809Z,76.05
2024-05-09T05:28:51.992Z,76.22
2024-05-09T05:33:57.008Z,75.72
2024-05-09T05:39:02.170Z,74.38
2024-05-09T05:44:10.475Z,73.30
2024-05-09T05:49:17.862Z,72.32
2024-05-09T05:54:32.994Z,71.90
2024-05-09T05:59:40.382Z,71.66
2024-05-09T06:04:45.798Z,70.66
2024-05-09T06:09:50.879Z,69.54
2024-05-09T06:14:58.556Z,69.51
2024-05-09T06:20:13.247Z,68.54
2024-05-09T06:25:22.479Z,68.37
2024-05-09T06:30:38.603Z,67.18
2024-05-09T06:35:56.977Z,66.82
2024-05-09T06:41:15.812Z,66.40
2024-05-09T06:46:39.854Z,65.44
2024-05-09T06:51:49.652Z,64.53
2024-05-09T06:57:14.871Z,62.97
2024-05-09T07:02:23.226Z,63.06
2024-05-09T07:07:42.432Z,62.40
2024-05-09T07:13:07.792Z,62.21
2024-05-09T07:18:19.925Z,61.93
2024-05-09T07:23:29.256Z,60.74
2024-05-09T07:28:46.952Z,60.63
2024-05-09T07:34:12.389Z,59.86
2024-05-09T07:39:30.528Z,58.57
2024-05-09T07:44:49.361Z,58.62
2024-05-09T07:55:25.866Z,58.85
2024-05-09T08:00:32.170Z,57.55
2024-05-09T08:05:51.215Z,56.43
2024-05-09T08:10:58.667Z,56.36
2024-05-09T08:16:04.151Z,55.79
2024-05-09T08:21:12.487Z,54.89
2024-05-09T08:26:37.699Z,54.27
2024-05-09T08:32:03.169Z,53.29
2024-05-09T08:37:15.787Z,52.99
2024-05-09T08:42:43.075Z,52.55
2024-05-09T08:48:01.073Z,51.72
2024-05-09T08:53:11.860Z,50.69
2024-05-09T08:58:19.055Z,50.19
2024-05-09T09:03:37.735Z,48.67
2024-05-09T09:08:59.823Z,46.85
2024-05-09T09:14:15.922Z,46.14
2024-05-09T09:19:22.768Z,45.21
2024-05-09T09:24:48.156Z,45.11
2024-05-09T09:30:03.624Z,44.41
2024-05-09T09:35:09.902Z,43.19
2024-05-09T09:46:59.697Z,42.75
2024-05-09T09:52:26.683Z,42.39
2024-05-09T09:57:35.802Z,41.79
2024-05-09T10:03:01.822Z,41.67
2024-05-09T10:08:29.684Z,41.79
2024-05-09T10:13:55.516Z,41.20
2024-05-09T10:19:03.866Z,41.23
2024-05-09T10:24:12.577Z,40.46
2024-05-09T10:29:28.929Z,40.19
2024-05-09T10:34:38.323Z,39.93
2024-05-09T10:39:53.851Z,40.03
2024-05-09T10:45:19.905Z,39.28
2024-05-09T10:50:36.142Z,38.83
2024-05-09T10:56:01.426Z,39.31
2024-05-09T11:01:27.572Z,39.65
2024-05-09T11:06:35.792Z,39.03
2024-05-09T11:12:01.368Z,39.14
2024-05-09T11:17:28.186Z,38.46
2024-05-09T11:22:54.050Z,37.74
2024-05-09T11:28:21.666Z,37.14
2024-05-09T11:33:48.920Z,36.50
2024-05-09T11:39:14.597Z,35.82
2024-05-09T11:44:40.059Z,35.96
2024-05-09T11:49:48.302Z,35.95
2024-05-09T11:55:13.767Z,36.35
2024-05-09T12:00:38.144Z,36.27
2024-05-09T12:06:03.671Z,35.34
2024-05-09T12:11:29.430Z,35.12
2024-05-09T12:16:54.986Z,34.38
2024-05-09T12:22:10.458Z,34.63
2024-05-09T12:27:25.706Z,34.82
2024-05-09T12:32:51.258Z,34.58
2024-05-09T12:38:17.351Z,32.90
2024-05-09T12:43:31.588Z,33.34
2024-05-09T12:48:37.178Z,33.61
2024-05-09T12:53:45.568Z,34.62
2024-05-09T12:59:12.290Z,34.65
2024-05-09T13:04:37.798Z,34.81
2024-05-09T13:10:04.441Z,34.96
2024-05-09T13:15:19.196Z,35.04
2024-05-09T13:20:44.968Z,34.33
2024-05-09T13:25:52.983Z,34.66
2024-05-09T13:31:08.224Z,34.71
2024-05-09T13:36:33.707Z,35.36
2024-05-09T13:41:59.028Z,35.25
2024-05-09T13:47:24.039Z,34.76
2024-05-09T13:52:42.076Z,33.49
2024-05-09T13:58:07.924Z,34.65
2024-05-09T14:03:18.413Z,34.87
2024-05-09T14:08:35.134Z,34.86
2024-05-09T14:13:51.300Z,35.30
2024-05-09T14:19:16.851Z,35.85
2024-05-09T14:24:25.041Z,35.50
2024-05-09T14:29:41.173Z,35.75
2024-05-09T14:35:06.607Z,35.85
2024-05-09T14:40:29.737Z,35.41
2024-05-09T14:46:01.126Z,36.17
2024-05-09T14:51:09.904Z,36.23
2024-05-09T14:56:35.453Z,35.83
2024-05-09T15:01:40.720Z,35.87
2024-05-09T15:06:56.535Z,35.95
2024-05-09T15:12:22.057Z,35.84
2024-05-09T15:17:31.847Z,35.82
2024-05-09T15:22:57.370Z,36.08
2024-05-09T15:28:10.690Z,36.61
2024-05-09T15:33:18.635Z,36.43
2024-05-09T15:38:35.119Z,35.95
2024-05-09T15:44:00.444Z,36.10
2024-05-09T15:49:26.076Z,35.76
2024-05-09T15:54:51.628Z,36.19
2024-05-09T16:00:24.978Z,36.13
2024-05-09T16:05:59.116Z,35.43
2024-05-09T16:11:14.747Z,35.43
2024-05-09T16:16:31.343Z,35.64
2024-05-09T16:21:47.732Z,35.97
2024-05-09T16:27:13.055Z,36.10
2024-05-09T16:32:38.372Z,36.27
2024-05-09T16:37:54.786Z,36.52
2024-05-09T16:43:20.219Z,37.16
2024-05-09T16:48:45.851Z,37.22
2024-05-09T16:54:01.304Z,37.00
2024-05-09T16:59:26.697Z,37.14
2024-05-09T17:04:52.062Z,37.47
2024-05-09T17:10:26.451Z,37.44
2024-05-09T17:15:57.644Z,37.55
2024-05-09T17:21:22.973Z,37.65
2024-05-09T17:26:37.271Z,37.83
2024-05-09T17:32:02.550Z,38.16
2024-05-09T17:37:27.965Z,38.67
2024-05-09T17:42:36.112Z,39.34
2024-05-09T17:47:41.735Z,39.74
2024-05-09T17:52:58.030Z,40.17
2024-05-09T17:58:06.538Z,40.59
2024-05-09T18:03:15.092Z,41.11
2024-05-09T18:08:41.472Z,41.88
2024-05-09T18:13:50.400Z,42.47
2024-05-09T18:18:56.549Z,42.91
2024-05-09T18:24:21.721Z,43.43
2024-05-09T18:29:34.172Z,43.96
2024-05-09T18:34:59.623Z,44.53
2024-05-09T18:40:32.935Z,45.00
2024-05-09T18:46:01.985Z,45.62
2024-05-09T18:51:17.271Z,46.06
2024-05-09T18:56:42.668Z,46.66
2024-05-09T19:02:08.836Z,47.21
2024-05-09T19:07:27.556Z,47.94
2024-05-09T19:12:52.913Z,48.63
2024-05-09T19:18:21.786Z,49.51
2024-05-09T19:23:52.126Z,50.35
2024-05-09T19:29:17.825Z,51.14
2024-05-09T19:34:33.828Z,51.74
2024-05-09T19:39:59.263Z,52.16
2024-05-09T19:45:25.498Z,52.77
2024-05-09T19:50:53.034Z,53.11
2024-05-09T19:56:20.238Z,53.55
2024-05-09T20:01:36.068Z,53.76
2024-05-09T20:07:02.244Z,53.82
2024-05-09T20:12:28.897Z,54.43
2024-05-09T20:17:54.806Z,55.01
2024-05-09T20:23:20.988Z,55.63
2024-05-09T20:28:37.855Z,56.18
2024-05-09T20:34:03.122Z,56.66
2024-05-09T20:39:28.772Z,57.22
2024-05-09T20:44:54.334Z,57.71
2024-05-09T20:50:23.044Z,58.08
2024-05-09T20:55:54.401Z,58.32
2024-05-09T21:01:19.417Z,58.66
2024-05-09T21:06:27.750Z,59.06
2024-05-09T21:11:43.102Z,59.65
2024-05-09T21:16:51.032Z,60.27
2024-05-09T21:22:16.572Z,60.58
2024-05-09T21:27:35.641Z,61.02
2024-05-09T21:33:01.084Z,61.56
2024-05-09T21:38:17.938Z,61.98
2024-05-09T21:43:34.130Z,62.52
2024-05-09T21:48:59.700Z,62.96
2024-05-09T21:54:07.934Z,63.45
2024-05-09T21:59:15.951Z,63.94
2024-05-09T22:04:28.567Z,64.35
2024-05-09T22:09:44.880Z,64.69
2024-05-09T22:14:50.127Z,65.09
2024-05-09T22:20:22.198Z,65.58
2024-05-09T22:25:54.206Z,65.96
2024-05-09T22:31:19.520Z,66.43
2024-05-09T22:36:27.013Z,66.85
2024-05-09T22:41:52.491Z,67.11
2024-05-09T22:47:17.840Z,67.55
2024-05-09T22:52:43.304Z,67.79
2024-05-09T22:57:58.811Z,68.15
2024-05-09T23:03:24.843Z,68.70
2024-05-09T23:08:52.010Z,68.84
2024-05-09T23:14:15.776Z,69.21
2024-05-09T23:19:41.215Z,69.41
2024-05-09T23:25:06.687Z,69.84
2024-05-09T23:30:38.215Z,70.12
2024-05-09T23:36:05.858Z,70.35
2024-05-09T23:41:31.133Z,70.91
2024-05-09T23:46:56.805Z,71.23
2024-05-09T23:52:22.459Z,71.64
2024-05-09T23:57:47.758Z,71.96
